Time;durP1;ratioP1;P1;durP2;ratioP2;P2;SDS_P1;SDS_P2;PMS_P1;PMS_P2;Temp;Humidity;BMP_temperature;BMP_pressure;BME280_temperature;BME280_humidity;BME280_pressure;Samples;Min_cycle;Max_cycle;Signal;HPM_P1;HPM_P2
2023/05/06 04:00:24;;;;;;;2.05;1.00;;;17.10;80.40;;;;;;6143069;22;21292;31
2023/05/06 04:02:50;;;;;;;2.00;1.10;;;17.10;80.30;;;;;;4976484;28;20487;-74
2023/05/06 04:05:17;;;;;;;2.00;1.50;;;17.10;80.50;;;;;;4977574;28;20955;-74
2023/05/06 04:07:44;;;;;;;2.10;1.30;;;17.10;80.40;;;;;;4978170;28;20501;-76
2023/05/06 04:10:11;;;;;;;3.13;1.80;;;17.10;80.40;;;;;;4978205;28;20438;-75
2023/05/06 04:12:37;;;;;;;2.53;1.33;;;17.10;80.10;;;;;;4977895;28;20520;-75
2023/05/06 04:15:06;;;;;;;2.10;1.30;;;17.00;80.10;;;;;;4978449;28;20521;-74
2023/05/06 04:17:34;;;;;;;2.57;1.27;;;17.00;80.20;;;;;;4978026;28;21050;-76
2023/05/06 04:20:05;;;;;;;2.33;1.47;;;17.00;79.90;;;;;;4977956;28;20584;-75
2023/05/06 04:22:32;;;;;;;1.80;1.17;;;16.90;79.90;;;;;;4977697;28;20987;-75
2023/05/06 04:24:59;;;;;;;3.23;1.37;;;16.90;80.00;;;;;;4977687;28;20873;-76
2023/05/06 04:27:28;;;;;;;2.30;1.40;;;16.90;80.10;;;;;;4977759;28;20457;-75
2023/05/06 04:29:55;;;;;;;1.90;1.20;;;16.90;80.00;;;;;;4977549;28;20549;-75
2023/05/06 04:32:24;;;;;;;3.50;1.40;;;17.00;79.80;;;;;;4977346;28;20474;-77
2023/05/06 04:34:52;;;;;;;3.70;1.40;;;17.00;79.80;;;;;;4977581;28;20461;-75
2023/05/06 04:37:18;;;;;;;2.13;1.37;;;17.00;79.70;;;;;;4977808;28;20453;-75
2023/05/06 04:39:46;;;;;;;2.10;1.50;;;16.90;79.70;;;;;;4978213;28;20580;-75
2023/05/06 04:42:13;;;;;;;2.27;1.40;;;17.00;79.60;;;;;;4977738;28;20485;-75
2023/05/06 04:44:40;;;;;;;3.43;1.73;;;17.00;79.50;;;;;;4978594;28;20450;-76
2023/05/06 04:47:07;;;;;;;7.20;1.90;;;17.00;79.50;;;;;;4978265;28;20490;-76
2023/05/06 04:49:33;;;;;;;2.63;1.50;;;17.00;79.50;;;;;;4978579;28;20951;-76
2023/05/06 04:52:02;;;;;;;2.33;1.10;;;17.00;79.60;;;;;;4978761;28;20473;-76
2023/05/06 04:54:29;;;;;;;2.60;1.50;;;17.10;79.70;;;;;;4978503;28;20454;-76
2023/05/06 04:56:55;;;;;;;2.57;1.73;;;17.10;79.50;;;;;;4978809;28;20513;-75
2023/05/06 04:59:22;;;;;;;2.20;1.60;;;17.20;79.40;;;;;;4978643;28;20541;-76
2023/05/06 05:01:48;;;;;;;2.73;1.70;;;17.30;79.30;;;;;;4977976;28;20473;-76
2023/05/06 05:04:15;;;;;;;2.60;1.50;;;17.40;78.90;;;;;;4978510;28;20513;-75
2023/05/06 05:06:42;;;;;;;2.93;1.50;;;17.30;79.20;;;;;;4978072;28;20450;-75
2023/05/06 05:09:10;;;;;;;2.10;1.40;;;17.30;79.30;;;;;;4977987;28;20505;-75
2023/05/06 05:11:37;;;;;;;2.93;1.47;;;17.40;79.50;;;;;;4977281;28;20521;-76
2023/05/06 05:14:04;;;;;;;2.00;1.30;;;17.50;79.40;;;;;;4977995;28;20457;-76
2023/05/06 05:16:31;;;;;;;2.87;1.50;;;17.60;79.00;;;;;;4978035;28;20454;-77
2023/05/06 05:18:57;;;;;;;2.37;1.30;;;17.70;78.80;;;;;;4977810;28;20487;-76
2023/05/06 05:21:24;;;;;;;2.10;1.37;;;17.80;78.60;;;;;;4978289;28;20474;-76
2023/05/06 05:23:51;;;;;;;2.23;1.30;;;17.80;78.50;;;;;;4978548;28;20458;-75
2023/05/06 05:26:19;;;;;;;2.60;1.57;;;17.70;78.40;;;;;;4977099;28;20458;-74
2023/05/06 05:28:45;;;;;;;2.00;1.40;;;17.70;78.90;;;;;;4976811;28;20453;-75
2023/05/06 05:31:12;;;;;;;2.93;1.70;;;17.90;78.90;;;;;;4976669;28;20467;-75
2023/05/06 05:33:39;;;;;;;1.90;1.37;;;18.10;78.80;;;;;;4976446;28;20446;-76
2023/05/06 05:36:06;;;;;;;2.17;1.77;;;18.20;78.30;;;;;;4976571;28;20450;-76
2023/05/06 05:38:33;;;;;;;2.00;1.43;;;18.40;77.60;;;;;;4976096;28;20936;-77
2023/05/06 05:41:00;;;;;;;2.30;1.50;;;18.60;77.40;;;;;;4976634;28;20887;-76
2023/05/06 05:43:28;;;;;;;2.37;1.90;;;18.60;76.30;;;;;;4976551;28;20461;-75
2023/05/06 05:45:54;;;;;;;2.10;1.40;;;18.40;76.20;;;;;;4976354;28;20446;-76
2023/05/06 05:48:21;;;;;;;2.27;1.83;;;18.30;77.50;;;;;;4976565;28;20508;-76
2023/05/06 05:50:48;;;;;;;2.30;1.80;;;18.30;78.00;;;;;;4976199;28;20466;-76
2023/05/06 05:53:15;;;;;;;2.60;1.77;;;18.40;77.50;;;;;;4976919;28;20462;-75
2023/05/06 05:55:41;;;;;;;2.70;1.60;;;18.40;77.10;;;;;;4977065;28;20553;-75
2023/05/06 05:58:10;;;;;;;2.40;1.50;;;18.60;77.00;;;;;;4976312;28;20865;-75
2023/05/06 06:00:38;;;;;;;1.80;1.30;;;18.80;76.30;;;;;;4976434;28;20482;-75
2023/05/06 06:03:04;;;;;;;2.10;1.50;;;19.10;75.40;;;;;;4977039;28;20555;-75
2023/05/06 06:05:31;;;;;;;1.90;1.40;;;19.40;74.40;;;;;;4976929;28;20450;-75
2023/05/06 06:07:59;;;;;;;2.37;1.40;;;19.60;74.10;;;;;;4976627;28;20501;-74
2023/05/06 06:10:25;;;;;;;1.80;1.10;;;19.80;73.80;;;;;;4976589;28;20450;-76
2023/05/06 06:12:52;;;;;;;2.13;1.37;;;20.00;72.80;;;;;;4977527;28;20454;-76
2023/05/06 06:15:19;;;;;;;2.30;1.30;;;20.10;71.70;;;;;;4976081;28;20505;-75
2023/05/06 06:17:47;;;;;;;2.10;1.20;;;19.90;72.00;;;;;;4976274;28;20458;-75
2023/05/06 06:20:14;;;;;;;2.00;1.10;;;20.00;71.80;;;;;;4976113;28;20490;-76
2023/05/06 06:22:40;;;;;;;2.10;1.63;;;20.10;72.40;;;;;;4975739;28;20467;-76
2023/05/06 06:25:08;;;;;;;2.20;1.40;;;20.20;72.60;;;;;;4975858;28;20458;-75
2023/05/06 06:27:35;;;;;;;2.10;1.17;;;20.20;71.90;;;;;;4975739;28;20450;-76
2023/05/06 06:30:02;;;;;;;2.23;1.23;;;20.40;72.40;;;;;;4976129;28;20545;-76
2023/05/06 06:32:28;;;;;;;3.10;1.10;;;20.50;71.40;;;;;;4975547;28;20983;-77
2023/05/06 06:34:56;;;;;;;2.10;1.30;;;20.20;70.30;;;;;;4975359;28;20450;-76
2023/05/06 06:37:23;;;;;;;1.87;1.17;;;20.10;71.10;;;;;;4975732;28;20450;-76
2023/05/06 06:39:49;;;;;;;2.63;1.00;;;20.00;70.90;;;;;;4975403;28;20849;-76
2023/05/06 06:42:16;;;;;;;1.80;1.03;;;19.80;70.90;;;;;;4975261;28;21075;-76
2023/05/06 06:44:43;;;;;;;2.20;1.20;;;19.70;71.30;;;;;;4975711;28;20500;-75
2023/05/06 06:47:09;;;;;;;2.63;1.10;;;19.60;72.00;;;;;;4975834;28;20450;-75
2023/05/06 06:49:37;;;;;;;2.17;1.00;;;19.40;72.90;;;;;;4975988;28;20446;-75
2023/05/06 06:52:05;;;;;;;2.23;1.20;;;19.10;73.20;;;;;;4975668;28;20481;-75
2023/05/06 06:54:32;;;;;;;4.17;1.37;;;19.20;74.80;;;;;;4975716;28;20454;-76
2023/05/06 06:56:58;;;;;;;2.10;1.23;;;19.50;75.20;;;;;;4975443;28;20509;-75
2023/05/06 06:59:25;;;;;;;3.00;1.10;;;19.70;73.40;;;;;;4975330;28;20823;-75
2023/05/06 07:01:52;;;;;;;1.87;1.00;;;20.10;71.30;;;;;;4975114;28;20478;-76
2023/05/06 07:04:18;;;;;;;2.27;1.00;;;20.20;71.60;;;;;;4974646;28;20449;-76
2023/05/06 07:06:45;;;;;;;3.30;1.20;;;20.40;71.20;;;;;;4974895;28;20504;-75
2023/05/06 07:09:13;;;;;;;1.90;1.00;;;20.60;69.70;;;;;;4974704;28;20442;-75
2023/05/06 07:11:40;;;;;;;1.73;1.00;;;20.60;69.10;;;;;;4974740;28;20474;-76
2023/05/06 07:14:07;;;;;;;1.73;1.00;;;20.70;67.80;;;;;;4974724;28;20457;-75
2023/05/06 07:16:33;;;;;;;2.30;1.00;;;20.70;68.90;;;;;;4974767;28;20488;-75
2023/05/06 07:19:00;;;;;;;2.80;1.00;;;20.80;69.30;;;;;;4975462;28;20485;-76
2023/05/06 07:21:27;;;;;;;2.00;0.97;;;20.80;67.90;;;;;;4975879;28;20470;-76
2023/05/06 07:23:54;;;;;;;1.60;0.87;;;20.80;67.30;;;;;;4976207;28;20443;-77
2023/05/06 07:26:22;;;;;;;2.70;1.10;;;20.60;67.90;;;;;;4976241;28;20450;-76
2023/05/06 07:28:48;;;;;;;1.60;0.80;;;20.60;67.70;;;;;;4975728;28;20454;-76
2023/05/06 07:31:19;;;;;;;1.60;0.80;;;20.60;66.40;;;;;;4975406;28;20528;-77
2023/05/06 07:33:46;;;;;;;1.60;0.90;;;20.60;67.80;;;;;;4975455;28;20938;-74
2023/05/06 07:36:12;;;;;;;1.60;0.90;;;20.40;67.50;;;;;;4978583;28;20998;-74
2023/05/06 07:38:39;;;;;;;2.73;0.97;;;19.80;69.60;;;;;;4980084;28;20505;-75
2023/05/06 07:41:06;;;;;;;1.57;0.80;;;19.90;70.10;;;;;;4979316;28;20501;-75
2023/05/06 07:43:34;;;;;;;1.57;0.80;;;19.90;69.40;;;;;;4979649;28;20458;-74
2023/05/06 07:46:02;;;;;;;2.53;0.90;;;20.00;69.30;;;;;;4979267;28;20442;-75
2023/05/06 07:48:28;;;;;;;1.50;0.80;;;20.10;69.60;;;;;;4979681;28;20821;-74
2023/05/06 07:50:55;;;;;;;1.70;0.90;;;20.20;69.60;;;;;;4979079;28;20501;-75
2023/05/06 07:53:22;;;;;;;2.40;1.00;;;20.40;69.10;;;;;;4978705;28;20514;-75
2023/05/06 07:55:49;;;;;;;1.73;1.00;;;20.50;67.80;;;;;;4979306;28;20449;-75
2023/05/06 07:58:15;;;;;;;2.57;0.97;;;20.50;67.00;;;;;;4978947;28;20454;-74
2023/05/06 08:00:43;;;;;;;1.70;0.80;;;20.70;67.80;;;;;;4978271;28;20489;-75
2023/05/06 08:03:10;;;;;;;1.60;0.90;;;20.70;66.80;;;;;;4978980;28;20438;-75
2023/05/06 08:05:37;;;;;;;2.40;1.20;;;20.70;66.80;;;;;;4978932;28;20449;-74
2023/05/06 08:08:04;;;;;;;1.53;0.87;;;20.90;67.00;;;;;;4978651;28;20504;-74
2023/05/06 08:10:31;;;;;;;1.50;0.70;;;20.60;66.10;;;;;;4978989;28;20496;-74
2023/05/06 08:12:57;;;;;;;1.80;0.80;;;20.60;67.30;;;;;;4978168;28;20490;-74
2023/05/06 08:15:24;;;;;;;2.80;0.80;;;20.70;67.10;;;;;;4978174;28;20505;-74
2023/05/06 08:17:52;;;;;;;1.60;0.80;;;20.80;66.30;;;;;;4977390;28;20509;-75
2023/05/06 08:20:19;;;;;;;2.00;1.00;;;20.90;67.70;;;;;;4978469;28;20482;-74
2023/05/06 08:22:45;;;;;;;1.70;0.80;;;20.80;67.70;;;;;;4979016;28;20477;-75
2023/05/06 08:25:12;;;;;;;3.37;1.30;;;20.60;66.60;;;;;;4978697;28;20450;-74
2023/05/06 08:27:39;;;;;;;1.83;0.87;;;20.40;67.10;;;;;;4978478;28;20457;-74
2023/05/06 08:30:07;;;;;;;1.93;1.00;;;20.50;67.60;;;;;;4978524;28;20454;-74
2023/05/06 08:32:33;;;;;;;1.60;1.00;;;20.80;68.10;;;;;;4978432;28;21058;-74
2023/05/06 08:35:01;;;;;;;1.60;0.80;;;20.90;68.50;;;;;;4978406;28;20454;-74
2023/05/06 08:37:29;;;;;;;2.17;1.17;;;20.60;67.90;;;;;;4977246;28;20502;-74
2023/05/06 08:39:56;;;;;;;1.60;0.80;;;20.60;68.50;;;;;;4977284;28;20578;-75
2023/05/06 08:42:24;;;;;;;2.90;1.00;;;21.00;66.40;;;;;;4977634;28;20466;-75
2023/05/06 08:44:52;;;;;;;2.00;1.00;;;21.30;68.00;;;;;;4978077;28;20817;-74
2023/05/06 08:47:19;;;;;;;2.00;0.97;;;21.00;67.80;;;;;;4977556;28;20533;-76
2023/05/06 08:49:46;;;;;;;1.50;0.80;;;20.70;67.20;;;;;;4979112;28;20549;-77
2023/05/06 08:52:14;;;;;;;1.90;0.90;;;20.20;67.20;;;;;;4978689;28;20525;-77
2023/05/06 08:54:41;;;;;;;1.80;0.90;;;20.20;67.60;;;;;;4979063;28;20480;-76
2023/05/06 08:57:11;;;;;;;1.57;0.77;;;20.40;66.60;;;;;;4978418;28;20502;-74
2023/05/06 08:59:38;;;;;;;1.60;0.80;;;20.30;65.20;;;;;;4978115;28;20864;-76
2023/05/06 09:02:05;;;;;;;1.80;0.90;;;20.20;67.20;;;;;;4977895;28;20474;-75
2023/05/06 09:04:32;;;;;;;1.80;0.90;;;20.40;66.20;;;;;;4978666;28;20504;-74
2023/05/06 09:06:59;;;;;;;1.60;0.80;;;20.60;66.70;;;;;;4978539;28;20458;-74
2023/05/06 09:09:27;;;;;;;1.77;0.97;;;20.50;65.10;;;;;;4978137;28;20537;-75
2023/05/06 09:11:56;;;;;;;1.60;0.80;;;20.50;65.10;;;;;;4977788;28;20520;-74
2023/05/06 09:14:23;;;;;;;1.73;0.70;;;20.60;65.90;;;;;;4977804;28;20553;-74
2023/05/06 09:16:51;;;;;;;1.80;1.07;;;20.70;66.60;;;;;;4977664;28;20477;-75
2023/05/06 09:19:19;;;;;;;1.63;0.90;;;21.10;65.00;;;;;;4977663;28;20454;-74
2023/05/06 09:21:48;;;;;;;1.80;0.97;;;21.20;63.70;;;;;;4976740;28;20529;-75
2023/05/06 09:24:17;;;;;;;1.70;0.90;;;21.40;63.10;;;;;;4976745;28;20501;-75
2023/05/06 09:26:47;;;;;;;2.90;0.80;;;20.80;62.80;;;;;;4976586;28;20450;-74
2023/05/06 09:29:14;;;;;;;1.60;0.80;;;21.10;62.70;;;;;;4977084;28;20501;-76
2023/05/06 09:31:41;;;;;;;1.50;0.80;;;21.20;64.10;;;;;;4976245;28;20461;-77
2023/05/06 09:34:08;;;;;;;4.03;0.80;;;21.50;64.10;;;;;;4976228;28;21002;-77
2023/05/06 09:36:35;;;;;;;1.50;0.70;;;21.40;62.60;;;;;;4976347;28;20454;-75
2023/05/06 09:39:01;;;;;;;2.27;0.80;;;20.90;61.50;;;;;;4976207;28;20497;-75
2023/05/06 09:41:29;;;;;;;2.30;0.70;;;20.80;63.20;;;;;;4976002;28;20489;-75
2023/05/06 09:43:58;;;;;;;1.50;0.70;;;20.80;63.60;;;;;;4976119;28;20461;-75
2023/05/06 09:46:26;;;;;;;1.70;0.83;;;20.90;64.80;;;;;;4977258;28;20545;-75
2023/05/06 09:48:55;;;;;;;1.40;0.70;;;21.00;62.60;;;;;;4976553;28;20458;-75
2023/05/06 09:51:22;;;;;;;2.00;1.00;;;21.00;62.00;;;;;;4976246;28;20506;-75
2023/05/06 09:53:48;;;;;;;1.97;0.90;;;21.20;62.80;;;;;;4975793;28;20461;-75
2023/05/06 09:56:16;;;;;;;1.50;0.80;;;21.60;62.40;;;;;;4975653;28;20936;-74
2023/05/06 09:58:45;;;;;;;2.43;0.97;;;21.70;61.20;;;;;;4975229;28;20477;-75
2023/05/06 10:01:14;;;;;;;1.90;1.00;;;21.80;62.80;;;;;;4975251;28;20634;-75
2023/05/06 10:03:42;;;;;;;1.57;0.80;;;21.70;62.90;;;;;;4975542;28;20576;-75
2023/05/06 10:06:11;;;;;;;1.57;0.87;;;21.80;62.40;;;;;;4975508;28;20859;-74
2023/05/06 10:08:40;;;;;;;2.30;1.00;;;22.10;61.80;;;;;;4975312;28;20828;-75
2023/05/06 10:11:07;;;;;;;1.67;0.80;;;22.10;62.40;;;;;;4975303;28;20477;-75
2023/05/06 10:13:36;;;;;;;2.10;0.90;;;22.00;60.80;;;;;;4975446;28;20467;-74
2023/05/06 10:16:04;;;;;;;2.40;0.90;;;21.90;62.10;;;;;;4975741;28;20450;-74
2023/05/06 10:18:34;;;;;;;1.70;0.80;;;22.00;62.90;;;;;;4975225;28;20454;-75
2023/05/06 10:21:03;;;;;;;1.93;1.20;;;21.70;62.70;;;;;;4975099;28;20490;-75
2023/05/06 10:23:35;;;;;;;1.73;0.80;;;21.90;62.20;;;;;;4974817;28;20458;-75
2023/05/06 10:26:07;;;;;;;1.77;0.90;;;21.90;62.90;;;;;;4975301;28;20435;-74
2023/05/06 10:28:39;;;;;;;1.80;1.00;;;21.80;62.80;;;;;;4975144;28;20522;-74
2023/05/06 10:31:10;;;;;;;1.70;1.10;;;22.10;61.50;;;;;;4975244;28;20473;-75
2023/05/06 10:33:38;;;;;;;1.70;1.00;;;22.40;61.00;;;;;;4975186;28;20463;-75
2023/05/06 10:36:15;;;;;;;2.73;1.43;;;22.60;60.20;;;;;;4974887;28;20829;-74
2023/05/06 10:38:45;;;;;;;3.87;1.00;;;22.80;60.60;;;;;;4975193;28;20435;-74
2023/05/06 10:41:13;;;;;;;2.00;1.00;;;22.90;60.20;;;;;;4974985;28;20573;-75
2023/05/06 10:43:41;;;;;;;1.83;0.90;;;23.10;58.70;;;;;;4974987;28;20446;-75
2023/05/06 10:46:09;;;;;;;2.40;1.20;;;23.40;58.80;;;;;;4975131;28;20533;-74
2023/05/06 10:48:39;;;;;;;1.70;0.93;;;23.50;59.60;;;;;;4975220;28;20458;-75
2023/05/06 10:51:24;;;;;;;1.80;0.87;;;23.30;59.40;;;;;;4975295;28;20517;-75
2023/05/06 10:54:02;;;;;;;2.10;0.83;;;22.80;58.70;;;;;;4974893;28;20915;-75
2023/05/06 10:56:31;;;;;;;1.60;0.80;;;22.50;59.10;;;;;;4975044;28;20442;-75
2023/05/06 10:59:06;;;;;;;2.07;0.90;;;22.50;60.10;;;;;;4974193;28;20448;-73
2023/05/06 11:01:33;;;;;;;1.60;0.90;;;22.30;59.80;;;;;;4974281;28;20490;-75
2023/05/06 11:04:05;;;;;;;2.20;1.10;;;22.30;60.50;;;;;;4974395;28;20453;-75
2023/05/06 11:06:37;;;;;;;1.67;0.80;;;22.10;58.70;;;;;;4974484;28;20439;-74
2023/05/06 11:09:04;;;;;;;2.47;1.00;;;22.20;59.80;;;;;;4974373;28;20500;-75
2023/05/06 11:11:51;;;;;;;2.00;0.80;;;22.10;60.90;;;;;;4977929;28;20886;-74
2023/05/06 11:14:31;;;;;;;1.80;0.70;;;22.50;60.80;;;;;;4978120;28;20873;-74
2023/05/06 11:17:00;;;;;;;2.07;0.80;;;22.90;59.50;;;;;;4978360;28;20507;-75
2023/05/06 11:19:29;;;;;;;1.60;0.90;;;22.80;59.40;;;;;;4978441;28;20457;-73
2023/05/06 11:21:57;;;;;;;1.50;0.80;;;22.70;60.20;;;;;;4978063;28;20500;-74
2023/05/06 11:24:28;;;;;;;2.20;1.00;;;22.30;59.50;;;;;;4978418;28;20545;-75
2023/05/06 11:26:55;;;;;;;2.53;1.00;;;21.90;60.50;;;;;;4978347;28;20442;-75
2023/05/06 11:29:22;;;;;;;2.50;0.93;;;21.70;61.90;;;;;;4978455;28;20496;-74
2023/05/06 11:31:49;;;;;;;2.00;0.90;;;22.00;62.60;;;;;;4978246;28;20466;-75
2023/05/06 11:34:24;;;;;;;1.67;0.93;;;22.00;59.20;;;;;;4978409;28;20458;-75
2023/05/06 11:37:01;;;;;;;1.70;0.90;;;21.90;57.40;;;;;;4978132;28;20443;-74
2023/05/06 11:39:29;;;;;;;1.50;0.70;;;22.00;57.40;;;;;;4978260;28;20438;-74
2023/05/06 11:42:01;;;;;;;2.00;0.90;;;21.70;56.60;;;;;;4977953;28;21087;-74
2023/05/06 11:44:30;;;;;;;2.00;0.90;;;21.40;58.30;;;;;;4978140;28;20430;-74
2023/05/06 11:46:58;;;;;;;2.40;0.90;;;21.20;59.90;;;;;;4978135;28;20465;-75
2023/05/06 11:49:25;;;;;;;1.60;0.80;;;21.30;59.80;;;;;;4977995;28;20454;-75
2023/05/06 11:51:53;;;;;;;1.60;0.80;;;21.90;59.70;;;;;;4977562;28;20975;-74
2023/05/06 11:54:21;;;;;;;1.70;1.00;;;22.30;58.30;;;;;;4977831;28;20446;-74
2023/05/06 11:56:50;;;;;;;2.03;1.17;;;22.30;59.90;;;;;;4977819;28;20450;-74
2023/05/06 11:59:18;;;;;;;1.80;1.00;;;22.20;60.80;;;;;;4977659;28;20927;-74
2023/05/06 12:01:46;;;;;;;1.80;1.03;;;22.50;61.30;;;;;;4977207;28;21061;-76
2023/05/06 12:04:12;;;;;;;2.00;1.07;;;22.70;59.10;;;;;;4977458;28;20504;-75
2023/05/06 12:06:39;;;;;;;2.30;1.07;;;22.80;61.40;;;;;;4977613;28;20457;-75
2023/05/06 12:09:11;;;;;;;2.20;1.10;;;22.70;60.20;;;;;;4977870;28;20460;-75
2023/05/06 12:11:38;;;;;;;1.87;1.10;;;22.80;60.70;;;;;;4977576;28;20463;-76
2023/05/06 12:14:07;;;;;;;1.90;1.00;;;22.80;60.50;;;;;;4977622;28;20449;-75
2023/05/06 12:16:34;;;;;;;2.27;1.00;;;22.90;58.40;;;;;;4976963;28;20935;-75
2023/05/06 12:19:02;;;;;;;2.00;1.20;;;22.90;57.80;;;;;;4977365;28;20540;-75
2023/05/06 12:21:29;;;;;;;2.47;1.23;;;23.10;56.40;;;;;;4976677;28;20489;-75
2023/05/06 12:23:58;;;;;;;1.80;1.10;;;23.10;57.70;;;;;;4977117;28;20513;-75
2023/05/06 12:26:27;;;;;;;1.80;1.00;;;23.20;58.90;;;;;;4977094;28;20549;-75
2023/05/06 12:29:08;;;;;;;1.73;1.07;;;23.40;58.30;;;;;;4977004;28;20461;-74
2023/05/06 12:31:35;;;;;;;2.53;1.23;;;23.20;57.60;;;;;;4977046;28;20474;-74
2023/05/06 12:34:01;;;;;;;1.80;0.90;;;23.10;59.80;;;;;;4977233;28;20854;-75
2023/05/06 12:36:28;;;;;;;1.77;1.10;;;23.00;57.80;;;;;;4976996;28;20451;-75
2023/05/06 12:38:56;;;;;;;2.53;1.00;;;22.70;57.80;;;;;;4977048;28;20887;-75
2023/05/06 12:41:24;;;;;;;2.10;1.10;;;22.90;58.60;;;;;;4977005;28;20544;-75
2023/05/06 12:43:52;;;;;;;2.33;1.13;;;23.00;56.60;;;;;;4977254;28;20521;-75
2023/05/06 12:46:19;;;;;;;1.93;1.07;;;22.90;57.00;;;;;;4977621;28;20450;-74
2023/05/06 12:48:59;;;;;;;1.70;1.00;;;23.20;57.70;;;;;;4976898;28;21022;-75
2023/05/06 12:51:26;;;;;;;1.90;0.90;;;23.10;57.20;;;;;;4977214;28;20836;-75
2023/05/06 12:53:53;;;;;;;1.60;0.90;;;22.90;57.70;;;;;;4977085;28;20545;-75
2023/05/06 12:56:20;;;;;;;1.70;1.00;;;22.70;55.60;;;;;;4977152;28;20539;-74
2023/05/06 12:58:58;;;;;;;1.70;1.00;;;22.70;58.40;;;;;;4977056;28;20533;-75
2023/05/06 13:01:24;;;;;;;2.27;1.10;;;22.90;57.90;;;;;;4976684;28;21050;-75
2023/05/06 13:03:51;;;;;;;1.60;0.90;;;22.80;56.60;;;;;;4976626;28;21025;-74
2023/05/06 13:06:18;;;;;;;2.77;0.97;;;22.70;57.10;;;;;;4976955;28;20813;-75
2023/05/06 13:08:45;;;;;;;2.00;0.80;;;22.90;57.70;;;;;;4976950;28;20455;-75
2023/05/06 13:11:11;;;;;;;2.47;1.07;;;23.10;57.10;;;;;;4977242;28;20458;-75
2023/05/06 13:13:38;;;;;;;2.30;0.90;;;23.50;55.00;;;;;;4977120;28;20451;-76
2023/05/06 13:16:08;;;;;;;2.13;0.90;;;23.80;56.20;;;;;;4977060;28;20450;-77
2023/05/06 13:18:34;;;;;;;2.37;1.10;;;24.30;56.80;;;;;;4976912;28;20568;-76
2023/05/06 13:21:02;;;;;;;1.60;0.80;;;24.30;53.30;;;;;;4976852;28;20525;-77
2023/05/06 13:23:30;;;;;;;1.83;0.90;;;24.00;53.50;;;;;;4977316;28;20458;-77
2023/05/06 13:25:58;;;;;;;2.10;0.83;;;23.60;54.20;;;;;;4977581;28;20527;-76
2023/05/06 13:28:25;;;;;;;1.60;0.80;;;23.50;54.90;;;;;;4977008;28;20439;-76
2023/05/06 13:30:52;;;;;;;2.33;1.10;;;23.40;55.60;;;;;;4977553;28;20506;-76
2023/05/06 13:33:20;;;;;;;1.90;0.80;;;23.60;56.10;;;;;;4975798;28;20455;-77
2023/05/06 13:35:47;;;;;;;2.20;1.10;;;23.40;55.90;;;;;;4976615;28;20458;-76
2023/05/06 13:38:13;;;;;;;1.57;0.90;;;23.20;57.00;;;;;;4976541;28;20973;-76
2023/05/06 13:40:40;;;;;;;1.70;0.87;;;23.40;57.10;;;;;;4976260;28;20847;-77
2023/05/06 13:43:07;;;;;;;1.50;0.80;;;23.40;55.90;;;;;;4976364;28;20490;-76
2023/05/06 13:45:33;;;;;;;2.53;1.00;;;23.50;55.50;;;;;;4976805;28;20446;-76
2023/05/06 13:48:00;;;;;;;1.67;0.77;;;23.40;55.50;;;;;;4976762;28;20450;-76
2023/05/06 13:50:28;;;;;;;2.20;1.10;;;23.20;55.70;;;;;;4976259;28;20513;-77
2023/05/06 13:52:54;;;;;;;1.80;1.00;;;23.30;56.30;;;;;;4976761;28;20505;-76
2023/05/06 13:55:21;;;;;;;2.13;1.27;;;23.40;56.60;;;;;;4976539;28;20458;-77
2023/05/06 13:57:48;;;;;;;1.83;1.00;;;23.80;55.50;;;;;;4976678;28;20454;-76
2023/05/06 14:00:15;;;;;;;2.13;0.90;;;24.10;54.80;;;;;;4976357;28;20855;-76
2023/05/06 14:02:42;;;;;;;1.80;0.83;;;24.10;53.60;;;;;;4976448;28;20494;-76
2023/05/06 14:05:09;;;;;;;1.70;0.90;;;24.10;54.40;;;;;;4976596;28;20489;-76
2023/05/06 14:07:37;;;;;;;4.00;1.20;;;24.20;54.40;;;;;;4976142;28;20445;-76
2023/05/06 14:10:04;;;;;;;1.90;1.37;;;23.90;55.10;;;;;;4977132;28;20450;-76
2023/05/06 14:12:31;;;;;;;2.00;1.30;;;23.90;57.40;;;;;;4976964;28;20474;-76
2023/05/06 14:14:57;;;;;;;1.87;0.90;;;24.10;55.60;;;;;;4976080;28;20501;-75
2023/05/06 14:17:24;;;;;;;1.70;1.00;;;23.80;54.90;;;;;;4975808;28;20481;-74
2023/05/06 14:19:51;;;;;;;2.60;0.90;;;23.50;55.80;;;;;;4976125;28;20875;-74
2023/05/06 14:22:18;;;;;;;1.50;0.80;;;23.60;56.40;;;;;;4975681;28;20486;-74
2023/05/06 14:24:46;;;;;;;2.93;0.90;;;23.80;55.80;;;;;;4975643;28;20458;-74
2023/05/06 14:27:13;;;;;;;2.80;0.87;;;24.00;56.60;;;;;;4975718;28;20810;-74
2023/05/06 14:29:41;;;;;;;1.70;0.80;;;24.40;53.60;;;;;;4975832;28;20489;-75
2023/05/06 14:32:08;;;;;;;2.20;0.90;;;24.20;53.70;;;;;;4976501;28;20470;-74
2023/05/06 14:34:35;;;;;;;1.90;0.80;;;24.40;53.60;;;;;;4977079;28;20485;-74
2023/05/06 14:37:02;;;;;;;2.13;0.90;;;24.60;52.50;;;;;;4976511;28;20481;-75
2023/05/06 14:39:28;;;;;;;2.00;1.07;;;24.80;52.40;;;;;;4977015;28;20450;-75
2023/05/06 14:41:56;;;;;;;1.43;0.80;;;24.90;53.90;;;;;;4977088;28;20526;-75
2023/05/06 14:44:23;;;;;;;2.03;1.17;;;24.80;52.40;;;;;;4976880;28;21023;-74
2023/05/06 14:46:50;;;;;;;1.90;0.80;;;25.00;53.20;;;;;;4976637;28;20944;-75
2023/05/06 14:49:16;;;;;;;2.93;1.20;;;25.10;52.30;;;;;;4976585;28;20947;-75
2023/05/06 14:51:43;;;;;;;1.90;0.90;;;25.00;52.20;;;;;;4976774;28;20983;-74
2023/05/06 14:54:11;;;;;;;1.73;1.00;;;25.10;52.30;;;;;;4975277;28;20508;-76
2023/05/06 14:56:37;;;;;;;1.47;0.80;;;24.70;51.30;;;;;;4976207;28;20518;-74
2023/05/06 14:59:05;;;;;;;1.70;1.00;;;24.60;52.40;;;;;;4976123;28;20450;-74
2023/05/06 15:01:32;;;;;;;1.70;0.90;;;24.60;52.00;;;;;;4976434;28;20486;-75
2023/05/06 15:03:59;;;;;;;2.10;0.80;;;24.80;52.90;;;;;;4976178;28;20466;-74
2023/05/06 15:06:26;;;;;;;1.87;0.90;;;24.70;51.00;;;;;;4976430;28;20454;-74
2023/05/06 15:08:52;;;;;;;1.70;0.97;;;25.00;51.80;;;;;;4976082;28;20465;-74
2023/05/06 15:11:19;;;;;;;2.27;0.90;;;25.40;51.20;;;;;;4975263;28;20521;-74
2023/05/06 15:13:46;;;;;;;1.60;0.80;;;25.80;50.80;;;;;;4974569;28;20530;-74
2023/05/06 15:16:14;;;;;;;1.90;0.97;;;26.00;49.80;;;;;;4974582;28;20874;-74
2023/05/06 15:18:41;;;;;;;2.37;0.83;;;26.10;50.30;;;;;;4974210;28;20947;-74
2023/05/06 15:21:08;;;;;;;1.93;0.90;;;26.40;49.40;;;;;;4974507;28;20482;-74
2023/05/06 15:23:35;;;;;;;1.90;0.97;;;26.60;48.20;;;;;;4974505;28;20486;-76
2023/05/06 15:26:01;;;;;;;1.50;1.00;;;26.70;47.60;;;;;;4975031;28;20486;-74
2023/05/06 15:28:28;;;;;;;1.50;0.80;;;26.90;47.60;;;;;;4974795;28;20578;-74
2023/05/06 15:30:55;;;;;;;1.80;1.00;;;26.80;48.20;;;;;;4974258;28;20510;-75
2023/05/06 15:33:23;;;;;;;1.80;0.80;;;26.50;48.40;;;;;;4974261;28;20863;-75
2023/05/06 15:35:49;;;;;;;1.77;1.00;;;26.10;49.20;;;;;;4975438;28;20454;-74
2023/05/06 15:38:16;;;;;;;3.40;1.07;;;26.10;49.30;;;;;;4976821;28;20477;-74
2023/05/06 15:40:49;;;;;;;1.53;0.90;;;26.00;49.40;;;;;;4975731;28;20976;-74
2023/05/06 15:43:16;;;;;;;2.10;0.80;;;25.90;48.60;;;;;;4974714;28;20552;-75
2023/05/06 15:45:43;;;;;;;1.80;0.90;;;25.80;49.60;;;;;;4974153;28;20458;-74
2023/05/06 15:48:09;;;;;;;2.03;0.90;;;25.40;49.50;;;;;;4974069;28;20524;-74
2023/05/06 15:50:37;;;;;;;1.63;0.90;;;24.60;50.60;;;;;;4973974;28;20450;-74
2023/05/06 15:53:04;;;;;;;1.70;1.00;;;24.40;51.60;;;;;;4974196;28;20450;-75
2023/05/06 15:55:31;;;;;;;1.70;0.80;;;24.20;52.10;;;;;;4974270;28;20450;-75
2023/05/06 15:57:58;;;;;;;1.60;0.90;;;24.10;52.00;;;;;;4978025;28;20528;-74
2023/05/06 16:00:26;;;;;;;2.37;0.93;;;23.90;53.20;;;;;;4977583;28;20484;-76
2023/05/06 16:02:53;;;;;;;1.70;1.00;;;24.00;52.30;;;;;;4977570;28;20548;-75
2023/05/06 16:05:20;;;;;;;2.57;1.10;;;23.90;52.50;;;;;;4977637;28;20461;-74
2023/05/06 16:07:48;;;;;;;1.97;0.83;;;23.90;53.10;;;;;;4977419;28;20509;-74
2023/05/06 16:10:15;;;;;;;1.60;0.90;;;23.70;52.80;;;;;;4977918;28;20521;-75
2023/05/06 16:12:41;;;;;;;1.80;0.80;;;23.70;52.90;;;;;;4977869;28;20524;-74
2023/05/06 16:15:09;;;;;;;1.60;0.80;;;23.60;53.50;;;;;;5007081;23;20564;-72
2023/05/06 16:17:36;;;;;;;1.70;0.80;;;23.60;52.70;;;;;;4997309;28;20899;-73
2023/05/06 16:20:04;;;;;;;4.00;1.50;;;23.80;53.10;;;;;;4996997;28;20457;-73
2023/05/06 16:22:30;;;;;;;1.60;0.90;;;23.70;52.90;;;;;;4996877;28;20491;-72
2023/05/06 16:24:58;;;;;;;2.20;1.10;;;23.50;53.10;;;;;;4996958;28;20539;-73
2023/05/06 16:27:26;;;;;;;1.90;0.90;;;23.40;53.40;;;;;;4996837;28;20450;-72
2023/05/06 16:29:53;;;;;;;1.70;0.90;;;23.60;53.70;;;;;;4996989;28;20829;-73
2023/05/06 16:32:20;;;;;;;1.70;0.90;;;23.50;53.70;;;;;;4996804;28;20499;-72
2023/05/06 16:34:46;;;;;;;1.50;0.70;;;23.20;53.30;;;;;;4996641;28;20515;-73
2023/05/06 16:37:14;;;;;;;1.90;0.97;;;23.10;53.50;;;;;;4996952;28;20532;-73
2023/05/06 16:39:41;;;;;;;1.70;0.80;;;23.20;53.40;;;;;;4996403;28;20453;-73
2023/05/06 16:42:09;;;;;;;2.00;0.80;;;22.90;53.70;;;;;;4996424;28;20507;-73
2023/05/06 16:44:36;;;;;;;1.90;1.00;;;22.90;53.90;;;;;;4996373;28;20500;-73
2023/05/06 16:47:02;;;;;;;1.50;0.80;;;23.10;54.60;;;;;;4996484;28;20449;-73
2023/05/06 16:49:29;;;;;;;1.50;0.70;;;23.20;54.00;;;;;;4996608;28;20504;-73